Ulyanovsk, Russia
Current Conditions -  °F | °C
As of 6:00 AM on Sunday 26 Oct 2014 (Local Time) from UWLW Reporting Station
Overcast Overcast  
Wind Chill: 11°   Ceiling: 3000
Heat Index: 21°   Visibility: 3mi
Dew Point: 10°   Wind: 9mph
Humidity: 63%   Direction: 10°N
Pressure: 30.56"   Gusts: 16mph
Location:  54.33°N, 48.4°E
Report Text: UWLW 260300Z 01004G07MPS P5000 OVC030CB M06/M12 Q1035 20CLRD60NOSIG RMK QFE770
Loading
Personal Weather Stations






























Interactive Weather Map
Tropical Storm Tracking
New forecast layout! Learn more

10-Day Weather Forecast

Advertisements
Track Severe Weather on mobile